sensor_id;sensor_type;location;lat;lon;timestamp;P1;durP1;ratioP1;P2;durP2;ratioP2
12703;SDS011;6416;52.182;7.650;2022-08-25T00:01:54;3.08;;;1.30;;
12703;SDS011;6416;52.182;7.650;2022-08-25T00:04:25;2.85;;;1.30;;
12703;SDS011;6416;52.182;7.650;2022-08-25T00:06:51;2.08;;;1.42;;
12703;SDS011;6416;52.182;7.650;2022-08-25T00:09:17;1.35;;;1.20;;
12703;SDS011;6416;52.182;7.650;2022-08-25T00:11:44;1.55;;;1.45;;
12703;SDS011;6416;52.182;7.650;2022-08-25T00:14:12;2.30;;;1.20;;
12703;SDS011;6416;52.182;7.650;2022-08-25T00:16:40;4.10;;;1.40;;
12703;SDS011;6416;52.182;7.650;2022-08-25T00:19:08;1.55;;;1.20;;
12703;SDS011;6416;52.182;7.650;2022-08-25T00:21:37;2.03;;;1.48;;
12703;SDS011;6416;52.182;7.650;2022-08-25T00:24:03;3.45;;;1.40;;
12703;SDS011;6416;52.182;7.650;2022-08-25T00:26:29;2.72;;;1.35;;
12703;SDS011;6416;52.182;7.650;2022-08-25T00:28:55;2.35;;;1.60;;
12703;SDS011;6416;52.182;7.650;2022-08-25T00:31:20;2.53;;;1.60;;
12703;SDS011;6416;52.182;7.650;2022-08-25T00:33:46;1.20;;;1.10;;
12703;SDS011;6416;52.182;7.650;2022-08-25T00:36:13;4.05;;;1.55;;
12703;SDS011;6416;52.182;7.650;2022-08-25T00:38:40;1.85;;;1.17;;
12703;SDS011;6416;52.182;7.650;2022-08-25T00:41:08;4.82;;;1.38;;
12703;SDS011;6416;52.182;7.650;2022-08-25T00:46:22;1.38;;;1.20;;
12703;SDS011;6416;52.182;7.650;2022-08-25T00:48:52;2.28;;;1.35;;
12703;SDS011;6416;52.182;7.650;2022-08-25T00:51:26;1.15;;;1.05;;
12703;SDS011;6416;52.182;7.650;2022-08-25T00:53:56;1.60;;;1.50;;
12703;SDS011;6416;52.182;7.650;2022-08-25T00:56:22;2.30;;;1.50;;
12703;SDS011;6416;52.182;7.650;2022-08-25T00:58:49;2.13;;;1.42;;
12703;SDS011;6416;52.182;7.650;2022-08-25T01:01:15;2.00;;;1.35;;
12703;SDS011;6416;52.182;7.650;2022-08-25T01:03:40;1.73;;;1.63;;
12703;SDS011;6416;52.182;7.650;2022-08-25T01:06:06;1.33;;;1.17;;
12703;SDS011;6416;52.182;7.650;2022-08-25T01:08:31;3.03;;;1.50;;
12703;SDS011;6416;52.182;7.650;2022-08-25T01:10:58;3.25;;;1.70;;
12703;SDS011;6416;52.182;7.650;2022-08-25T01:13:38;2.67;;;1.35;;
12703;SDS011;6416;52.182;7.650;2022-08-25T01:16:07;1.73;;;1.50;;
12703;SDS011;6416;52.182;7.650;2022-08-25T01:18:43;3.83;;;1.45;;
12703;SDS011;6416;52.182;7.650;2022-08-25T01:21:20;3.63;;;1.42;;
12703;SDS011;6416;52.182;7.650;2022-08-25T01:23:48;2.35;;;1.40;;
12703;SDS011;6416;52.182;7.650;2022-08-25T01:28:42;1.50;;;1.40;;
12703;SDS011;6416;52.182;7.650;2022-08-25T01:31:09;1.90;;;1.50;;
12703;SDS011;6416;52.182;7.650;2022-08-25T01:33:34;2.05;;;1.50;;
12703;SDS011;6416;52.182;7.650;2022-08-25T01:36:00;1.50;;;1.40;;
12703;SDS011;6416;52.182;7.650;2022-08-25T01:38:25;2.00;;;1.60;;
12703;SDS011;6416;52.182;7.650;2022-08-25T01:40:51;2.28;;;1.52;;
12703;SDS011;6416;52.182;7.650;2022-08-25T01:43:30;2.58;;;1.52;;
12703;SDS011;6416;52.182;7.650;2022-08-25T01:46:00;2.45;;;1.63;;
12703;SDS011;6416;52.182;7.650;2022-08-25T01:48:25;4.78;;;1.85;;
12703;SDS011;6416;52.182;7.650;2022-08-25T01:50:51;1.85;;;1.30;;
12703;SDS011;6416;52.182;7.650;2022-08-25T01:53:25;2.63;;;1.42;;
12703;SDS011;6416;52.182;7.650;2022-08-25T01:55:55;2.83;;;1.40;;
12703;SDS011;6416;52.182;7.650;2022-08-25T01:58:22;2.92;;;1.50;;
12703;SDS011;6416;52.182;7.650;2022-08-25T02:00:50;4.35;;;1.50;;
12703;SDS011;6416;52.182;7.650;2022-08-25T02:03:17;3.50;;;1.65;;
12703;SDS011;6416;52.182;7.650;2022-08-25T02:05:43;3.03;;;1.63;;
12703;SDS011;6416;52.182;7.650;2022-08-25T02:08:09;2.50;;;1.70;;
12703;SDS011;6416;52.182;7.650;2022-08-25T02:10:34;1.50;;;1.40;;
12703;SDS011;6416;52.182;7.650;2022-08-25T02:13:00;2.78;;;1.65;;
12703;SDS011;6416;52.182;7.650;2022-08-25T02:15:28;2.92;;;1.88;;
12703;SDS011;6416;52.182;7.650;2022-08-25T02:17:54;2.20;;;1.55;;
12703;SDS011;6416;52.182;7.650;2022-08-25T02:20:20;2.33;;;1.60;;
12703;SDS011;6416;52.182;7.650;2022-08-25T02:22:45;15.68;;;2.00;;
12703;SDS011;6416;52.182;7.650;2022-08-25T02:25:11;2.78;;;1.75;;
12703;SDS011;6416;52.182;7.650;2022-08-25T02:27:36;7.93;;;1.73;;
12703;SDS011;6416;52.182;7.650;2022-08-25T02:30:03;1.65;;;1.50;;
12703;SDS011;6416;52.182;7.650;2022-08-25T02:32:29;2.13;;;1.50;;
12703;SDS011;6416;52.182;7.650;2022-08-25T02:34:54;2.10;;;1.90;;
12703;SDS011;6416;52.182;7.650;2022-08-25T02:37:20;7.07;;;1.73;;
12703;SDS011;6416;52.182;7.650;2022-08-25T02:39:45;1.60;;;1.50;;
12703;SDS011;6416;52.182;7.650;2022-08-25T02:42:11;2.63;;;1.42;;
12703;SDS011;6416;52.182;7.650;2022-08-25T02:44:36;2.35;;;2.15;;
12703;SDS011;6416;52.182;7.650;2022-08-25T02:47:02;1.75;;;1.45;;
12703;SDS011;6416;52.182;7.650;2022-08-25T02:49:28;1.85;;;1.50;;
12703;SDS011;6416;52.182;7.650;2022-08-25T02:51:53;1.70;;;1.50;;
12703;SDS011;6416;52.182;7.650;2022-08-25T02:54:19;1.92;;;1.70;;
12703;SDS011;6416;52.182;7.650;2022-08-25T02:56:44;1.63;;;1.52;;
12703;SDS011;6416;52.182;7.650;2022-08-25T02:59:10;2.15;;;1.60;;
12703;SDS011;6416;52.182;7.650;2022-08-25T03:01:35;3.03;;;1.63;;
12703;SDS011;6416;52.182;7.650;2022-08-25T03:04:01;4.78;;;2.00;;
12703;SDS011;6416;52.182;7.650;2022-08-25T03:06:27;2.40;;;1.90;;
12703;SDS011;6416;52.182;7.650;2022-08-25T03:08:53;2.42;;;1.80;;
12703;SDS011;6416;52.182;7.650;2022-08-25T03:11:19;3.05;;;1.90;;
12703;SDS011;6416;52.182;7.650;2022-08-25T03:13:45;2.58;;;1.50;;
12703;SDS011;6416;52.182;7.650;2022-08-25T03:16:11;3.00;;;1.95;;
12703;SDS011;6416;52.182;7.650;2022-08-25T03:18:39;2.33;;;1.52;;
12703;SDS011;6416;52.182;7.650;2022-08-25T03:21:06;4.60;;;1.90;;
12703;SDS011;6416;52.182;7.650;2022-08-25T03:23:32;3.95;;;1.55;;
12703;SDS011;6416;52.182;7.650;2022-08-25T03:25:57;2.38;;;1.85;;
12703;SDS011;6416;52.182;7.650;2022-08-25T03:28:23;1.98;;;1.77;;
12703;SDS011;6416;52.182;7.650;2022-08-25T03:30:49;2.42;;;1.60;;
12703;SDS011;6416;52.182;7.650;2022-08-25T03:33:14;1.92;;;1.70;;
12703;SDS011;6416;52.182;7.650;2022-08-25T03:35:40;3.33;;;2.10;;
12703;SDS011;6416;52.182;7.650;2022-08-25T03:38:05;1.73;;;1.63;;
12703;SDS011;6416;52.182;7.650;2022-08-25T03:40:31;3.33;;;1.85;;
12703;SDS011;6416;52.182;7.650;2022-08-25T03:42:56;2.22;;;2.03;;
12703;SDS011;6416;52.182;7.650;2022-08-25T03:45:22;2.22;;;1.90;;
12703;SDS011;6416;52.182;7.650;2022-08-25T03:47:49;2.10;;;1.90;;
12703;SDS011;6416;52.182;7.650;2022-08-25T03:50:16;2.45;;;1.80;;
12703;SDS011;6416;52.182;7.650;2022-08-25T03:52:43;2.40;;;1.80;;
12703;SDS011;6416;52.182;7.650;2022-08-25T03:55:10;4.13;;;1.92;;
12703;SDS011;6416;52.182;7.650;2022-08-25T03:57:36;3.55;;;2.10;;
12703;SDS011;6416;52.182;7.650;2022-08-25T04:00:03;3.08;;;1.75;;
12703;SDS011;6416;52.182;7.650;2022-08-25T04:02:30;3.35;;;1.88;;
12703;SDS011;6416;52.182;7.650;2022-08-25T04:04:56;2.70;;;1.90;;
12703;SDS011;6416;52.182;7.650;2022-08-25T04:07:21;1.98;;;1.88;;
12703;SDS011;6416;52.182;7.650;2022-08-25T04:09:47;3.03;;;2.17;;
12703;SDS011;6416;52.182;7.650;2022-08-25T04:12:12;3.20;;;2.13;;
12703;SDS011;6416;52.182;7.650;2022-08-25T04:14:38;2.80;;;2.33;;
12703;SDS011;6416;52.182;7.650;2022-08-25T04:17:03;9.55;;;2.45;;
12703;SDS011;6416;52.182;7.650;2022-08-25T04:19:29;11.18;;;2.20;;
12703;SDS011;6416;52.182;7.650;2022-08-25T04:21:54;2.47;;;2.00;;
12703;SDS011;6416;52.182;7.650;2022-08-25T04:24:20;9.68;;;2.50;;
12703;SDS011;6416;52.182;7.650;2022-08-25T04:26:46;2.92;;;2.10;;
12703;SDS011;6416;52.182;7.650;2022-08-25T04:29:15;4.82;;;2.20;;
12703;SDS011;6416;52.182;7.650;2022-08-25T04:31:43;5.45;;;2.60;;
12703;SDS011;6416;52.182;7.650;2022-08-25T04:34:09;8.32;;;2.25;;
12703;SDS011;6416;52.182;7.650;2022-08-25T04:36:35;4.00;;;2.22;;
12703;SDS011;6416;52.182;7.650;2022-08-25T04:39:00;3.28;;;2.28;;
12703;SDS011;6416;52.182;7.650;2022-08-25T04:41:26;3.67;;;2.10;;
12703;SDS011;6416;52.182;7.650;2022-08-25T04:43:52;3.20;;;2.10;;
12703;SDS011;6416;52.182;7.650;2022-08-25T04:46:23;4.03;;;1.90;;
12703;SDS011;6416;52.182;7.650;2022-08-25T04:48:51;2.83;;;1.95;;
12703;SDS011;6416;52.182;7.650;2022-08-25T04:51:19;2.58;;;2.13;;
12703;SDS011;6416;52.182;7.650;2022-08-25T04:53:50;3.65;;;1.98;;
12703;SDS011;6416;52.182;7.650;2022-08-25T04:56:16;5.00;;;2.78;;
12703;SDS011;6416;52.182;7.650;2022-08-25T04:58:44;5.95;;;2.30;;
12703;SDS011;6416;52.182;7.650;2022-08-25T05:01:11;5.70;;;2.20;;
12703;SDS011;6416;52.182;7.650;2022-08-25T05:03:39;3.95;;;2.20;;
12703;SDS011;6416;52.182;7.650;2022-08-25T05:06:04;5.40;;;2.05;;
12703;SDS011;6416;52.182;7.650;2022-08-25T05:08:30;11.30;;;3.57;;
12703;SDS011;6416;52.182;7.650;2022-08-25T05:10:56;12.35;;;3.40;;
12703;SDS011;6416;52.182;7.650;2022-08-25T05:13:23;10.95;;;3.97;;
12703;SDS011;6416;52.182;7.650;2022-08-25T05:15:50;14.73;;;3.10;;
12703;SDS011;6416;52.182;7.650;2022-08-25T05:18:20;18.13;;;3.33;;
12703;SDS011;6416;52.182;7.650;2022-08-25T05:20:48;20.52;;;3.90;;
12703;SDS011;6416;52.182;7.650;2022-08-25T05:23:14;15.10;;;3.70;;
12703;SDS011;6416;52.182;7.650;2022-08-25T05:25:39;13.07;;;3.17;;
12703;SDS011;6416;52.182;7.650;2022-08-25T05:28:05;15.60;;;3.22;;
12703;SDS011;6416;52.182;7.650;2022-08-25T05:30:30;12.57;;;3.15;;
12703;SDS011;6416;52.182;7.650;2022-08-25T05:32:56;12.93;;;3.50;;
12703;SDS011;6416;52.182;7.650;2022-08-25T05:35:21;15.50;;;2.47;;
12703;SDS011;6416;52.182;7.650;2022-08-25T05:37:47;9.23;;;2.78;;
12703;SDS011;6416;52.182;7.650;2022-08-25T05:40:13;10.30;;;2.92;;
12703;SDS011;6416;52.182;7.650;2022-08-25T05:42:38;9.82;;;2.13;;
12703;SDS011;6416;52.182;7.650;2022-08-25T05:45:04;3.55;;;2.45;;
12703;SDS011;6416;52.182;7.650;2022-08-25T05:47:31;2.03;;;1.88;;
12703;SDS011;6416;52.182;7.650;2022-08-25T05:49:56;2.78;;;2.00;;
12703;SDS011;6416;52.182;7.650;2022-08-25T05:52:22;3.47;;;2.10;;
12703;SDS011;6416;52.182;7.650;2022-08-25T05:54:47;4.20;;;1.83;;
12703;SDS011;6416;52.182;7.650;2022-08-25T05:57:13;2.78;;;2.25;;
12703;SDS011;6416;52.182;7.650;2022-08-25T05:59:39;4.10;;;1.90;;
12703;SDS011;6416;52.182;7.650;2022-08-25T06:02:04;2.85;;;2.22;;
12703;SDS011;6416;52.182;7.650;2022-08-25T06:04:30;1.98;;;1.80;;
12703;SDS011;6416;52.182;7.650;2022-08-25T06:06:56;3.83;;;2.20;;
12703;SDS011;6416;52.182;7.650;2022-08-25T06:09:21;2.83;;;1.80;;
12703;SDS011;6416;52.182;7.650;2022-08-25T06:11:47;2.83;;;1.92;;
12703;SDS011;6416;52.182;7.650;2022-08-25T06:14:13;1.92;;;1.80;;
12703;SDS011;6416;52.182;7.650;2022-08-25T06:16:39;2.65;;;2.08;;
12703;SDS011;6416;52.182;7.650;2022-08-25T06:19:06;3.78;;;1.77;;
12703;SDS011;6416;52.182;7.650;2022-08-25T06:21:33;2.85;;;1.73;;
12703;SDS011;6416;52.182;7.650;2022-08-25T06:23:59;3.08;;;1.67;;
12703;SDS011;6416;52.182;7.650;2022-08-25T06:26:24;4.90;;;1.73;;
12703;SDS011;6416;52.182;7.650;2022-08-25T06:28:50;3.50;;;1.85;;
12703;SDS011;6416;52.182;7.650;2022-08-25T06:31:16;2.22;;;1.92;;
12703;SDS011;6416;52.182;7.650;2022-08-25T06:33:43;1.88;;;1.55;;
12703;SDS011;6416;52.182;7.650;2022-08-25T06:36:09;2.00;;;1.60;;
12703;SDS011;6416;52.182;7.650;2022-08-25T06:38:34;2.95;;;1.65;;
12703;SDS011;6416;52.182;7.650;2022-08-25T06:41:04;2.28;;;1.60;;
12703;SDS011;6416;52.182;7.650;2022-08-25T06:43:31;4.13;;;1.80;;
12703;SDS011;6416;52.182;7.650;2022-08-25T06:45:57;1.70;;;1.60;;
12703;SDS011;6416;52.182;7.650;2022-08-25T06:48:31;2.28;;;1.65;;
12703;SDS011;6416;52.182;7.650;2022-08-25T06:50:57;7.22;;;1.70;;
12703;SDS011;6416;52.182;7.650;2022-08-25T06:53:22;1.88;;;1.58;;
12703;SDS011;6416;52.182;7.650;2022-08-25T06:55:54;2.33;;;1.50;;
12703;SDS011;6416;52.182;7.650;2022-08-25T06:58:20;3.67;;;2.00;;
12703;SDS011;6416;52.182;7.650;2022-08-25T07:00:46;2.28;;;1.63;;
12703;SDS011;6416;52.182;7.650;2022-08-25T07:03:11;1.77;;;1.65;;
12703;SDS011;6416;52.182;7.650;2022-08-25T07:05:37;2.28;;;1.73;;
12703;SDS011;6416;52.182;7.650;2022-08-25T07:08:02;4.25;;;2.05;;
12703;SDS011;6416;52.182;7.650;2022-08-25T07:10:28;2.63;;;1.50;;
12703;SDS011;6416;52.182;7.650;2022-08-25T07:12:53;1.83;;;1.50;;
12703;SDS011;6416;52.182;7.650;2022-08-25T07:15:19;2.33;;;1.80;;
12703;SDS011;6416;52.182;7.650;2022-08-25T07:17:45;2.67;;;1.45;;
12703;SDS011;6416;52.182;7.650;2022-08-25T07:20:11;4.22;;;1.63;;
12703;SDS011;6416;52.182;7.650;2022-08-25T07:22:37;1.67;;;1.38;;
12703;SDS011;6416;52.182;7.650;2022-08-25T07:25:02;2.20;;;1.65;;
12703;SDS011;6416;52.182;7.650;2022-08-25T07:27:28;7.22;;;2.00;;
12703;SDS011;6416;52.182;7.650;2022-08-25T07:29:55;2.92;;;1.70;;
12703;SDS011;6416;52.182;7.650;2022-08-25T07:32:21;3.22;;;1.83;;
12703;SDS011;6416;52.182;7.650;2022-08-25T07:34:46;3.72;;;1.77;;
12703;SDS011;6416;52.182;7.650;2022-08-25T07:37:12;2.50;;;1.90;;
12703;SDS011;6416;52.182;7.650;2022-08-25T07:39:37;3.50;;;1.60;;
12703;SDS011;6416;52.182;7.650;2022-08-25T07:42:03;1.60;;;1.50;;
12703;SDS011;6416;52.182;7.650;2022-08-25T07:44:29;2.38;;;1.85;;
12703;SDS011;6416;52.182;7.650;2022-08-25T07:46:55;1.85;;;1.63;;
12703;SDS011;6416;52.182;7.650;2022-08-25T07:49:20;2.03;;;1.52;;
12703;SDS011;6416;52.182;7.650;2022-08-25T07:51:47;2.05;;;1.60;;
12703;SDS011;6416;52.182;7.650;2022-08-25T07:54:13;2.05;;;1.50;;
12703;SDS011;6416;52.182;7.650;2022-08-25T07:56:38;6.90;;;1.77;;
12703;SDS011;6416;52.182;7.650;2022-08-25T07:59:04;1.90;;;1.67;;
12703;SDS011;6416;52.182;7.650;2022-08-25T08:01:31;2.00;;;1.80;;
12703;SDS011;6416;52.182;7.650;2022-08-25T08:03:56;1.98;;;1.60;;
12703;SDS011;6416;52.182;7.650;2022-08-25T08:06:22;1.65;;;1.55;;
12703;SDS011;6416;52.182;7.650;2022-08-25T08:08:49;2.33;;;1.50;;
12703;SDS011;6416;52.182;7.650;2022-08-25T08:11:34;3.80;;;1.85;;
12703;SDS011;6416;52.182;7.650;2022-08-25T08:14:00;3.10;;;1.85;;
12703;SDS011;6416;52.182;7.650;2022-08-25T08:16:28;2.13;;;1.67;;
12703;SDS011;6416;52.182;7.650;2022-08-25T08:18:54;3.30;;;1.48;;
12703;SDS011;6416;52.182;7.650;2022-08-25T08:21:25;2.30;;;1.80;;
12703;SDS011;6416;52.182;7.650;2022-08-25T08:23:54;2.33;;;1.45;;
12703;SDS011;6416;52.182;7.650;2022-08-25T08:26:20;2.85;;;2.00;;
12703;SDS011;6416;52.182;7.650;2022-08-25T08:28:46;7.50;;;1.98;;
12703;SDS011;6416;52.182;7.650;2022-08-25T08:31:12;3.40;;;1.88;;
12703;SDS011;6416;52.182;7.650;2022-08-25T08:33:37;3.58;;;1.67;;
12703;SDS011;6416;52.182;7.650;2022-08-25T08:36:05;2.78;;;1.63;;
12703;SDS011;6416;52.182;7.650;2022-08-25T08:38:33;1.98;;;1.50;;
12703;SDS011;6416;52.182;7.650;2022-08-25T08:44:19;4.07;;;1.98;;
12703;SDS011;6416;52.182;7.650;2022-08-25T08:47:10;2.97;;;1.92;;
12703;SDS011;6416;52.182;7.650;2022-08-25T08:49:52;3.45;;;2.03;;
12703;SDS011;6416;52.182;7.650;2022-08-25T08:55:19;3.13;;;1.77;;
12703;SDS011;6416;52.182;7.650;2022-08-25T08:57:51;2.90;;;2.05;;
12703;SDS011;6416;52.182;7.650;2022-08-25T09:00:20;8.82;;;1.90;;
12703;SDS011;6416;52.182;7.650;2022-08-25T09:02:52;4.40;;;1.70;;
12703;SDS011;6416;52.182;7.650;2022-08-25T09:05:28;2.80;;;1.73;;
12703;SDS011;6416;52.182;7.650;2022-08-25T09:07:57;2.28;;;1.65;;
12703;SDS011;6416;52.182;7.650;2022-08-25T09:10:28;3.85;;;1.67;;
12703;SDS011;6416;52.182;7.650;2022-08-25T09:13:09;1.55;;;1.45;;
12703;SDS011;6416;52.182;7.650;2022-08-25T09:15:58;2.15;;;1.40;;
12703;SDS011;6416;52.182;7.650;2022-08-25T09:18:40;2.97;;;1.58;;
12703;SDS011;6416;52.182;7.650;2022-08-25T09:21:29;1.77;;;1.67;;
12703;SDS011;6416;52.182;7.650;2022-08-25T09:24:25;2.17;;;1.88;;
12703;SDS011;6416;52.182;7.650;2022-08-25T09:29:34;1.85;;;1.70;;
12703;SDS011;6416;52.182;7.650;2022-08-25T09:32:13;2.38;;;1.73;;
12703;SDS011;6416;52.182;7.650;2022-08-25T09:34:41;2.38;;;1.85;;
12703;SDS011;6416;52.182;7.650;2022-08-25T09:37:07;2.00;;;1.75;;
12703;SDS011;6416;52.182;7.650;2022-08-25T09:39:32;5.28;;;2.30;;
12703;SDS011;6416;52.182;7.650;2022-08-25T09:41:58;2.15;;;1.70;;
12703;SDS011;6416;52.182;7.650;2022-08-25T09:44:30;2.92;;;1.75;;
12703;SDS011;6416;52.182;7.650;2022-08-25T09:47:22;5.63;;;2.00;;
12703;SDS011;6416;52.182;7.650;2022-08-25T09:49:56;2.10;;;1.90;;
12703;SDS011;6416;52.182;7.650;2022-08-25T10:00:16;3.60;;;1.80;;
12703;SDS011;6416;52.182;7.650;2022-08-25T10:03:02;2.88;;;1.70;;
12703;SDS011;6416;52.182;7.650;2022-08-25T10:05:30;4.72;;;1.98;;
12703;SDS011;6416;52.182;7.650;2022-08-25T10:07:57;2.70;;;1.73;;
12703;SDS011;6416;52.182;7.650;2022-08-25T10:10:34;4.40;;;1.80;;
12703;SDS011;6416;52.182;7.650;2022-08-25T10:13:13;2.20;;;1.70;;
12703;SDS011;6416;52.182;7.650;2022-08-25T10:15:42;3.15;;;1.70;;
12703;SDS011;6416;52.182;7.650;2022-08-25T10:20:59;2.30;;;1.80;;
12703;SDS011;6416;52.182;7.650;2022-08-25T10:23:26;2.40;;;1.67;;
12703;SDS011;6416;52.182;7.650;2022-08-25T10:25:52;5.38;;;2.50;;
12703;SDS011;6416;52.182;7.650;2022-08-25T10:28:32;2.17;;;1.90;;
12703;SDS011;6416;52.182;7.650;2022-08-25T10:31:33;4.22;;;1.70;;
12703;SDS011;6416;52.182;7.650;2022-08-25T10:44:36;2.20;;;1.73;;
12703;SDS011;6416;52.182;7.650;2022-08-25T10:47:43;6.35;;;1.90;;
12703;SDS011;6416;52.182;7.650;2022-08-25T10:52:55;2.50;;;1.52;;
12703;SDS011;6416;52.182;7.650;2022-08-25T10:58:15;2.55;;;1.70;;
12703;SDS011;6416;52.182;7.650;2022-08-25T11:01:09;10.27;;;1.90;;
12703;SDS011;6416;52.182;7.650;2022-08-25T11:06:06;5.90;;;1.77;;
12703;SDS011;6416;52.182;7.650;2022-08-25T11:08:42;2.08;;;1.67;;
12703;SDS011;6416;52.182;7.650;2022-08-25T11:11:30;1.90;;;1.58;;
12703;SDS011;6416;52.182;7.650;2022-08-25T11:14:08;2.55;;;1.58;;
12703;SDS011;6416;52.182;7.650;2022-08-25T11:22:19;3.20;;;2.30;;
12703;SDS011;6416;52.182;7.650;2022-08-25T11:30:36;1.65;;;1.55;;
12703;SDS011;6416;52.182;7.650;2022-08-25T11:33:01;2.25;;;1.88;;
12703;SDS011;6416;52.182;7.650;2022-08-25T11:35:28;4.20;;;1.85;;
12703;SDS011;6416;52.182;7.650;2022-08-25T11:43:41;3.58;;;1.80;;
12703;SDS011;6416;52.182;7.650;2022-08-25T11:46:26;4.30;;;1.85;;
12703;SDS011;6416;52.182;7.650;2022-08-25T11:51:41;2.83;;;1.98;;
12703;SDS011;6416;52.182;7.650;2022-08-25T11:57:17;6.07;;;2.45;;
12703;SDS011;6416;52.182;7.650;2022-08-25T12:10:22;7.22;;;2.28;;
12703;SDS011;6416;52.182;7.650;2022-08-25T12:12:56;2.63;;;2.10;;
12703;SDS011;6416;52.182;7.650;2022-08-25T12:18:12;2.15;;;1.83;;
12703;SDS011;6416;52.182;7.650;2022-08-25T12:23:28;6.78;;;2.47;;
12703;SDS011;6416;52.182;7.650;2022-08-25T12:26:03;2.33;;;2.08;;
12703;SDS011;6416;52.182;7.650;2022-08-25T12:28:44;1.95;;;1.75;;
12703;SDS011;6416;52.182;7.650;2022-08-25T12:36:55;2.50;;;2.10;;
12703;SDS011;6416;52.182;7.650;2022-08-25T12:39:27;3.47;;;2.33;;
12703;SDS011;6416;52.182;7.650;2022-08-25T12:41:56;3.50;;;2.30;;
12703;SDS011;6416;52.182;7.650;2022-08-25T12:44:41;1.67;;;1.52;;
12703;SDS011;6416;52.182;7.650;2022-08-25T12:49:44;2.28;;;2.08;;
12703;SDS011;6416;52.182;7.650;2022-08-25T12:52:17;4.00;;;2.50;;
12703;SDS011;6416;52.182;7.650;2022-08-25T12:54:56;3.55;;;1.98;;
12703;SDS011;6416;52.182;7.650;2022-08-25T12:59:58;3.38;;;2.00;;
12703;SDS011;6416;52.182;7.650;2022-08-25T13:05:20;4.68;;;2.10;;
12703;SDS011;6416;52.182;7.650;2022-08-25T13:11:02;2.72;;;2.38;;
12703;SDS011;6416;52.182;7.650;2022-08-25T13:13:37;2.55;;;2.05;;
12703;SDS011;6416;52.182;7.650;2022-08-25T13:16:17;8.88;;;3.38;;
12703;SDS011;6416;52.182;7.650;2022-08-25T13:18:47;3.90;;;2.72;;
12703;SDS011;6416;52.182;7.650;2022-08-25T13:23:50;2.40;;;2.22;;
12703;SDS011;6416;52.182;7.650;2022-08-25T13:26:22;2.40;;;2.20;;
12703;SDS011;6416;52.182;7.650;2022-08-25T13:28:57;2.38;;;2.05;;
12703;SDS011;6416;52.182;7.650;2022-08-25T13:31:23;7.05;;;2.65;;
12703;SDS011;6416;52.182;7.650;2022-08-25T13:33:51;2.90;;;2.30;;
12703;SDS011;6416;52.182;7.650;2022-08-25T13:36:19;2.40;;;2.20;;
12703;SDS011;6416;52.182;7.650;2022-08-25T13:38:47;5.07;;;2.45;;
12703;SDS011;6416;52.182;7.650;2022-08-25T13:41:21;2.38;;;1.90;;
12703;SDS011;6416;52.182;7.650;2022-08-25T13:43:56;3.00;;;2.28;;
12703;SDS011;6416;52.182;7.650;2022-08-25T13:46:22;3.72;;;2.35;;
12703;SDS011;6416;52.182;7.650;2022-08-25T13:48:47;3.03;;;2.53;;
12703;SDS011;6416;52.182;7.650;2022-08-25T13:53:47;2.85;;;2.20;;
12703;SDS011;6416;52.182;7.650;2022-08-25T13:56:21;3.53;;;2.55;;
12703;SDS011;6416;52.182;7.650;2022-08-25T13:59:18;3.17;;;2.40;;
12703;SDS011;6416;52.182;7.650;2022-08-25T14:01:54;3.30;;;2.50;;
12703;SDS011;6416;52.182;7.650;2022-08-25T14:09:46;3.05;;;2.78;;
12703;SDS011;6416;52.182;7.650;2022-08-25T14:12:27;5.60;;;2.38;;
12703;SDS011;6416;52.182;7.650;2022-08-25T14:15:06;2.63;;;2.42;;
12703;SDS011;6416;52.182;7.650;2022-08-25T14:17:40;2.58;;;2.30;;
12703;SDS011;6416;52.182;7.650;2022-08-25T14:20:21;2.53;;;2.30;;
12703;SDS011;6416;52.182;7.650;2022-08-25T14:22:53;2.72;;;2.50;;
12703;SDS011;6416;52.182;7.650;2022-08-25T14:25:21;4.20;;;2.28;;
12703;SDS011;6416;52.182;7.650;2022-08-25T14:27:53;2.63;;;2.35;;
12703;SDS011;6416;52.182;7.650;2022-08-25T14:30:20;2.28;;;2.08;;
12703;SDS011;6416;52.182;7.650;2022-08-25T14:32:45;2.70;;;2.22;;
12703;SDS011;6416;52.182;7.650;2022-08-25T14:35:11;2.50;;;2.30;;
12703;SDS011;6416;52.182;7.650;2022-08-25T14:37:36;3.55;;;2.40;;
12703;SDS011;6416;52.182;7.650;2022-08-25T14:40:02;3.35;;;2.50;;
12703;SDS011;6416;52.182;7.650;2022-08-25T14:42:28;2.50;;;1.80;;
12703;SDS011;6416;52.182;7.650;2022-08-25T14:44:53;4.90;;;2.30;;
12703;SDS011;6416;52.182;7.650;2022-08-25T14:47:19;3.72;;;2.20;;
12703;SDS011;6416;52.182;7.650;2022-08-25T14:49:44;6.68;;;2.10;;
12703;SDS011;6416;52.182;7.650;2022-08-25T14:52:29;2.45;;;2.05;;
12703;SDS011;6416;52.182;7.650;2022-08-25T14:54:54;2.72;;;1.98;;
12703;SDS011;6416;52.182;7.650;2022-08-25T14:57:20;4.85;;;2.35;;
12703;SDS011;6416;52.182;7.650;2022-08-25T14:59:46;3.97;;;2.35;;
12703;SDS011;6416;52.182;7.650;2022-08-25T15:02:12;3.15;;;2.30;;
12703;SDS011;6416;52.182;7.650;2022-08-25T15:04:39;2.78;;;2.20;;
12703;SDS011;6416;52.182;7.650;2022-08-25T15:07:05;4.70;;;2.60;;
12703;SDS011;6416;52.182;7.650;2022-08-25T15:09:30;2.65;;;2.28;;
12703;SDS011;6416;52.182;7.650;2022-08-25T15:11:56;2.60;;;2.40;;
12703;SDS011;6416;52.182;7.650;2022-08-25T15:14:23;3.28;;;2.17;;
12703;SDS011;6416;52.182;7.650;2022-08-25T15:16:52;2.65;;;2.28;;
12703;SDS011;6416;52.182;7.650;2022-08-25T15:19:20;4.35;;;2.33;;
12703;SDS011;6416;52.182;7.650;2022-08-25T15:21:48;2.35;;;2.15;;
12703;SDS011;6416;52.182;7.650;2022-08-25T15:24:14;4.72;;;2.35;;
12703;SDS011;6416;52.182;7.650;2022-08-25T15:26:42;2.45;;;2.25;;
12703;SDS011;6416;52.182;7.650;2022-08-25T15:29:12;2.75;;;2.55;;
12703;SDS011;6416;52.182;7.650;2022-08-25T15:31:37;2.70;;;2.50;;
12703;SDS011;6416;52.182;7.650;2022-08-25T15:34:04;2.90;;;2.30;;
12703;SDS011;6416;52.182;7.650;2022-08-25T15:36:31;5.20;;;2.25;;
12703;SDS011;6416;52.182;7.650;2022-08-25T15:38:57;3.83;;;2.22;;
12703;SDS011;6416;52.182;7.650;2022-08-25T15:41:22;3.03;;;2.63;;
12703;SDS011;6416;52.182;7.650;2022-08-25T15:43:48;3.17;;;2.03;;
12703;SDS011;6416;52.182;7.650;2022-08-25T15:46:15;2.50;;;2.30;;
12703;SDS011;6416;52.182;7.650;2022-08-25T15:48:43;3.50;;;2.15;;
12703;SDS011;6416;52.182;7.650;2022-08-25T15:51:08;2.53;;;2.33;;
12703;SDS011;6416;52.182;7.650;2022-08-25T15:53:34;6.63;;;2.03;;
12703;SDS011;6416;52.182;7.650;2022-08-25T15:56:00;3.13;;;2.25;;
12703;SDS011;6416;52.182;7.650;2022-08-25T15:58:25;3.08;;;2.47;;
12703;SDS011;6416;52.182;7.650;2022-08-25T16:00:51;2.60;;;2.40;;
12703;SDS011;6416;52.182;7.650;2022-08-25T16:03:17;2.45;;;2.25;;
12703;SDS011;6416;52.182;7.650;2022-08-25T16:05:42;3.05;;;2.40;;
12703;SDS011;6416;52.182;7.650;2022-08-25T16:08:08;3.22;;;2.38;;
12703;SDS011;6416;52.182;7.650;2022-08-25T16:10:39;3.22;;;2.28;;
12703;SDS011;6416;52.182;7.650;2022-08-25T16:13:06;3.33;;;2.50;;
12703;SDS011;6416;52.182;7.650;2022-08-25T16:15:32;2.60;;;2.40;;
12703;SDS011;6416;52.182;7.650;2022-08-25T16:17:58;4.28;;;2.30;;
12703;SDS011;6416;52.182;7.650;2022-08-25T16:20:24;3.85;;;2.47;;
12703;SDS011;6416;52.182;7.650;2022-08-25T16:22:54;3.72;;;2.40;;
12703;SDS011;6416;52.182;7.650;2022-08-25T16:25:19;5.00;;;2.22;;
12703;SDS011;6416;52.182;7.650;2022-08-25T16:27:45;2.75;;;1.90;;
12703;SDS011;6416;52.182;7.650;2022-08-25T16:30:11;2.03;;;1.92;;
12703;SDS011;6416;52.182;7.650;2022-08-25T16:32:38;4.90;;;2.58;;
12703;SDS011;6416;52.182;7.650;2022-08-25T16:35:04;4.75;;;2.38;;
12703;SDS011;6416;52.182;7.650;2022-08-25T16:37:33;3.05;;;1.95;;
12703;SDS011;6416;52.182;7.650;2022-08-25T16:39:59;2.30;;;2.08;;
12703;SDS011;6416;52.182;7.650;2022-08-25T16:42:25;3.53;;;2.33;;
12703;SDS011;6416;52.182;7.650;2022-08-25T16:44:51;3.83;;;2.05;;
12703;SDS011;6416;52.182;7.650;2022-08-25T16:47:17;4.25;;;2.13;;
12703;SDS011;6416;52.182;7.650;2022-08-25T16:49:43;3.75;;;2.08;;
12703;SDS011;6416;52.182;7.650;2022-08-25T16:52:09;6.07;;;2.60;;
12703;SDS011;6416;52.182;7.650;2022-08-25T16:54:35;2.25;;;2.10;;
12703;SDS011;6416;52.182;7.650;2022-08-25T16:57:00;3.17;;;2.20;;
12703;SDS011;6416;52.182;7.650;2022-08-25T16:59:26;4.70;;;2.20;;